Van Tassell, WY (82242)

2:38 AM MST on March 04, 2015 (GMT -0700)
LEMS | Change Station
CLOSE
Current Station
Personal Weather Station
Location: Lusk, WY
Elevation: 5070 ft
Nearby Weather Stations
Active Advisory: Wind Chill Advisory

Elev 5070 ft 42.76 °N, 104.45 °W | Updated 1 minute ago

Partly Cloudy
Partly Cloudy
2.4 °F
Feels Like -8 °F
N
5.0
Wind Variable Wind from West
Gusts 5.0 mph

Today
High -- | Low -- °F
--% Chance of Precip.
Yesterday
High -- | Low -- °F
Precip. -- in
6:27 AM 5:49 PM
Waxing Gibbous, 98% visible
Pressure 30.27 in
Visibility 10.0 miles
Clouds Few 11000 ft
Windchill -8 °F
Dew Point -5 °F
Humidity 72%
Rainfall 0.00 in
Snow Depth Not available.
UV 0 out of 12
Pollen .60 out of 12
Air Quality Not available.
Flu Activity Not available.
METAR KTOR 040853Z AUTO 26004KT 10SM FEW110 M15/M17 A3007 RMK AO2 SLP250 T11501172 51006

More Conditions Fewer Conditions

Pressure 30.27 in
Visibility 10.0 miles
Clouds Few 11000 ft
Windchill -8 °F
Dew Point -5 °F
Humidity 72%
Rainfall 0.00 in
Snow Depth Not available.
UV 0 out of 12
Pollen .60 out of 12
Air Quality Not available.
Flu Activity Not available.
METAR KTOR 040853Z AUTO 26004KT 10SM FEW110 M15/M17 A3007 RMK AO2 SLP250 T11501172 51006

More Conditions Fewer Conditions

10-Day Weather Forecast

Almanac

Astronomy

Mar. 04, 2015 Rise Set
Actual Time
Civil Twilight
Nautical Twilight
Astronomical Twilight
Moon
Length of Visible Light
Length of Day
Tomorrow will be .
, % of the Moon is Illuminated

Today's Extremes

State Highs State Lows

Community

WunderPhotos

Upload Photos

1,802,425 photos uploaded!

WunderBlogs® & News

Nearby

Air Quality

  Air Quality AQ Index Pollutant
Not available.

Snow Depth

Station Depth Elevation

Earthquake Activity

City Distance Mag. Time & Date
Minimum magnitude displayed is 2.5.

Coastal Water Temperatures

Place Temperature

Nearby Weather Stations

Wind Chill Advisory
Statement as of 9:10 PM MST on March 03, 2015

... Wind Chill Advisory in effect from 2 am to 10 am MST
Wednesday...

The National Weather Service in Cheyenne has issued a Wind Chill
Advisory... which is in effect from 2 am to 10 am MST Wednesday.

* Timing... temperatures will continue to lower as skies clear
through midnight tonight. Wind chills will lower below 15 below
zero after midnight.

* Wind chill values... around 25 below zero.

* Impacts... frostbite can occur quickly in these conditions.

Precautionary/preparedness actions...

The wind chill is the temperature your body feels when the air
temperature is combined with the wind speed. With wind chills in
the minus 20 to 29 degree range frostbite can occur in as little
as 30 minutes. The most susceptible parts of the body are the
extremities such as fingers... toes... ear lobes... or the tip of
the nose.



Tt